Time;durP1;ratioP1;P1;durP2;ratioP2;P2;SDS_P1;SDS_P2;PMS_P1;PMS_P2;Temp;Humidity;BMP_temperature;BMP_pressure;BME280_temperature;BME280_humidity;BME280_pressure;Samples;Min_cycle;Max_cycle;Signal;HPM_P1;HPM_P2
2023/09/04 00:01:13;;;;;;;6.38;4.05;;;;;;;17.14;100.00;102634.59;5055057;28;20040;-64
2023/09/04 00:04:03;;;;;;;7.50;4.60;;;;;;;17.19;100.00;102631.88;5049324;28;20509;-63
2023/09/04 00:06:51;;;;;;;6.18;4.18;;;;;;;17.26;100.00;102624.19;5040579;28;20049;-64
2023/09/04 00:09:39;;;;;;;7.90;4.07;;;;;;;17.26;100.00;102621.44;5055797;28;20048;-65
2023/09/04 00:12:27;;;;;;;8.15;5.10;;;;;;;17.20;100.00;102620.59;5055635;28;20136;-63
2023/09/04 00:15:15;;;;;;;7.18;4.15;;;;;;;17.09;100.00;102624.38;5052471;28;20486;-63
2023/09/04 00:18:04;;;;;;;7.20;5.03;;;;;;;17.00;100.00;102624.09;5055533;28;20084;-64
2023/09/04 00:20:52;;;;;;;8.18;4.80;;;;;;;16.88;100.00;102622.63;5042871;28;20049;-64
2023/09/04 00:23:40;;;;;;;9.02;5.05;;;;;;;16.80;100.00;102622.03;5034729;28;20053;-64
2023/09/04 00:26:28;;;;;;;8.90;4.93;;;;;;;16.77;100.00;102619.78;5054455;28;20055;-64
2023/09/04 00:29:16;;;;;;;8.15;5.20;;;;;;;16.80;100.00;102612.94;5053197;28;20072;-66
2023/09/04 00:32:05;;;;;;;8.57;5.10;;;;;;;16.85;100.00;102623.97;5052046;28;20092;-63
2023/09/04 00:34:53;;;;;;;8.65;5.30;;;;;;;16.79;100.00;102625.88;5040883;28;20091;-64
2023/09/04 00:37:42;;;;;;;7.95;4.78;;;;;;;16.74;100.00;102619.47;5053723;28;20124;-64
2023/09/04 00:40:30;;;;;;;6.68;4.57;;;;;;;16.73;100.00;102617.81;5050126;28;20045;-63
2023/09/04 00:43:18;;;;;;;8.82;5.13;;;;;;;16.75;100.00;102619.22;5034885;28;20050;-64
2023/09/04 00:46:06;;;;;;;7.63;5.10;;;;;;;16.77;100.00;102618.94;5021069;28;20119;-64
2023/09/04 00:48:54;;;;;;;8.73;5.00;;;;;;;16.81;100.00;102623.69;5008661;28;20049;-63
2023/09/04 00:51:43;;;;;;;10.07;5.40;;;;;;;16.77;100.00;102624.47;5024705;28;20071;-64
2023/09/04 00:54:31;;;;;;;7.97;5.25;;;;;;;16.70;100.00;102630.19;5030140;28;20045;-63
2023/09/04 00:57:19;;;;;;;8.73;5.78;;;;;;;16.68;100.00;102624.13;5022402;28;20049;-65
2023/09/04 01:00:10;;;;;;;6.78;4.50;;;;;;;16.68;100.00;102628.78;5025211;28;20147;-64
2023/09/04 01:03:02;;;;;;;7.75;4.78;;;;;;;16.69;100.00;102627.69;5033421;28;20056;-64
2023/09/04 01:05:50;;;;;;;8.60;4.88;;;;;;;16.68;100.00;102628.78;5033962;28;20052;-64
2023/09/04 01:08:38;;;;;;;7.22;4.60;;;;;;;16.71;100.00;102622.75;5024419;28;20037;-64
2023/09/04 01:12:00;;;;;;;7.75;5.05;;;;;;;16.72;100.00;102618.94;5052100;28;20072;-64
2023/09/04 01:14:49;;;;;;;8.40;4.85;;;;;;;16.76;100.00;102615.38;5049737;28;20041;-65
2023/09/04 01:17:38;;;;;;;7.43;5.15;;;;;;;16.77;100.00;102621.72;5053714;28;20056;-64
2023/09/04 01:20:28;;;;;;;9.52;5.53;;;;;;;16.72;100.00;102614.25;5046273;28;20049;-63
2023/09/04 01:23:16;;;;;;;8.80;5.20;;;;;;;16.62;100.00;102611.44;5055177;28;20493;-65
2023/09/04 01:26:31;;;;;;;10.15;5.57;;;;;;;16.57;100.00;102612.22;5041202;28;20489;-64
2023/09/04 01:29:34;;;;;;;10.32;5.20;;;;;;;16.54;100.00;102612.72;5024858;28;20195;-65
2023/09/04 01:32:36;;;;;;;8.60;5.18;;;;;;;16.57;100.00;102609.47;5053074;28;20126;-64
2023/09/04 01:35:24;;;;;;;7.95;5.43;;;;;;;16.59;100.00;102610.00;5053245;28;20151;-63
2023/09/04 01:38:13;;;;;;;9.35;5.60;;;;;;;16.56;100.00;102616.06;5038361;28;20527;-64
2023/09/04 01:41:07;;;;;;;9.63;5.68;;;;;;;16.49;100.00;102609.94;5052072;28;20037;-64
2023/09/04 01:43:55;;;;;;;12.43;5.82;;;;;;;16.40;100.00;102614.28;5038376;28;20068;-65
2023/09/04 01:46:44;;;;;;;8.75;5.85;;;;;;;16.29;100.00;102607.06;5040844;28;20493;-64
2023/09/04 01:49:32;;;;;;;9.93;5.45;;;;;;;16.24;100.00;102607.03;5047308;28;20038;-63
2023/09/04 01:52:20;;;;;;;8.98;5.60;;;;;;;16.23;100.00;102602.59;5032305;28;20064;-64
2023/09/04 01:55:08;;;;;;;9.50;5.78;;;;;;;16.21;100.00;102591.03;5020828;28;20045;-65
2023/09/04 01:57:56;;;;;;;9.68;6.00;;;;;;;16.18;100.00;102595.94;5028134;28;20080;-64
2023/09/04 02:00:47;;;;;;;8.25;5.25;;;;;;;16.19;100.00;102591.31;5031011;28;20053;-64
2023/09/04 02:03:35;;;;;;;9.77;5.80;;;;;;;16.21;100.00;102596.53;5034869;28;20045;-65
2023/09/04 02:06:26;;;;;;;8.77;5.78;;;;;;;16.18;100.00;102597.88;5018810;28;20074;-63
2023/09/04 02:09:16;;;;;;;8.93;5.93;;;;;;;16.11;100.00;102589.00;5035154;28;20378;-64
2023/09/04 02:12:04;;;;;;;8.00;5.28;;;;;;;16.14;100.00;102592.09;5052687;28;20186;-63
2023/09/04 02:14:52;;;;;;;7.63;4.88;;;;;;;16.26;100.00;102593.81;5039310;28;20041;-64
2023/09/04 02:17:40;;;;;;;8.10;4.95;;;;;;;16.32;100.00;102595.53;5025813;28;20122;-64
2023/09/04 02:20:29;;;;;;;9.57;5.95;;;;;;;16.32;100.00;102590.84;5025041;28;20049;-63
2023/09/04 02:23:17;;;;;;;8.98;6.10;;;;;;;16.22;100.00;102585.25;5010605;28;20052;-65
2023/09/04 02:26:05;;;;;;;8.40;5.82;;;;;;;16.11;100.00;102591.75;5054006;28;20053;-63
2023/09/04 02:28:53;;;;;;;8.80;5.75;;;;;;;16.02;100.00;102583.19;5024089;28;20056;-62
2023/09/04 02:31:42;;;;;;;9.15;5.32;;;;;;;16.01;100.00;102586.19;5039981;28;20142;-64
2023/09/04 02:34:31;;;;;;;7.53;5.28;;;;;;;16.00;100.00;102584.53;5052520;28;20049;-63
2023/09/04 02:37:19;;;;;;;9.65;5.25;;;;;;;16.05;100.00;102587.34;5031084;28;20045;-64
2023/09/04 02:40:07;;;;;;;11.57;6.47;;;;;;;16.09;100.00;102586.56;5032865;28;20518;-65
2023/09/04 02:42:56;;;;;;;8.20;5.15;;;;;;;16.09;100.00;102582.94;5019939;28;20052;-64
2023/09/04 02:45:46;;;;;;;9.88;5.13;;;;;;;16.09;100.00;102586.56;5031786;28;20065;-65
2023/09/04 02:48:34;;;;;;;10.13;5.55;;;;;;;16.13;100.00;102584.91;5029411;28;20042;-63
2023/09/04 02:51:22;;;;;;;9.88;6.63;;;;;;;16.07;100.00;102583.22;5032082;28;20095;-63
2023/09/04 02:54:10;;;;;;;10.00;6.25;;;;;;;15.99;100.00;102589.19;5006848;28;20049;-63
2023/09/04 02:56:58;;;;;;;8.20;5.60;;;;;;;15.93;100.00;102582.00;5032264;28;20049;-64
2023/09/04 02:59:46;;;;;;;8.70;6.00;;;;;;;15.91;100.00;102578.69;5027483;28;20428;-64
2023/09/04 03:02:34;;;;;;;9.10;5.75;;;;;;;15.89;100.00;102578.09;5038805;28;20367;-64
2023/09/04 03:05:24;;;;;;;10.93;6.47;;;;;;;15.91;100.00;102575.94;5053705;28;20048;-64
2023/09/04 03:08:13;;;;;;;8.23;5.18;;;;;;;15.87;100.00;102570.09;5022062;28;20046;-65
2023/09/04 03:11:01;;;;;;;8.50;5.68;;;;;;;15.88;100.00;102571.78;5018816;28;20042;-64
2023/09/04 03:13:49;;;;;;;10.13;6.00;;;;;;;15.89;100.00;102578.09;5048411;28;20037;-64
2023/09/04 03:16:38;;;;;;;10.90;5.93;;;;;;;15.84;100.00;102573.38;5037636;28;20489;-64
2023/09/04 03:19:27;;;;;;;9.30;5.78;;;;;;;15.76;100.00;102580.19;5048922;28;20037;-63
2023/09/04 03:22:15;;;;;;;11.52;6.45;;;;;;;15.68;100.00;102572.41;5051329;28;20183;-64
2023/09/04 03:25:04;;;;;;;8.75;5.65;;;;;;;15.66;100.00;102569.06;5052718;28;20408;-63
2023/09/04 03:27:53;;;;;;;9.32;6.28;;;;;;;15.65;100.00;102561.91;5036739;28;20045;-64
2023/09/04 03:30:43;;;;;;;8.30;5.68;;;;;;;15.66;100.00;102552.59;5051483;28;20049;-64
2023/09/04 03:33:31;;;;;;;7.97;5.43;;;;;;;15.64;100.00;102564.94;5050626;28;20385;-65
2023/09/04 03:36:19;;;;;;;8.52;5.38;;;;;;;15.66;100.00;102563.56;5037542;28;20053;-65
2023/09/04 03:39:09;;;;;;;8.27;5.32;;;;;;;15.72;100.00;102550.75;5050675;28;20419;-65
2023/09/04 03:41:57;;;;;;;10.70;6.32;;;;;;;15.72;100.00;102551.56;5052660;28;20061;-64
2023/09/04 03:44:44;;;;;;;10.50;6.38;;;;;;;15.66;100.00;102549.00;5050984;28;20076;-64
2023/09/04 03:47:32;;;;;;;7.47;5.07;;;;;;;15.58;100.00;102553.03;5043024;28;20041;-63
2023/09/04 03:50:21;;;;;;;11.13;6.10;;;;;;;15.55;100.00;102546.13;5047465;28;20056;-64
2023/09/04 03:53:09;;;;;;;10.52;6.28;;;;;;;15.56;100.00;102546.97;5017816;28;20493;-64
2023/09/04 03:56:04;;;;;;;9.18;6.38;;;;;;;15.50;100.00;102542.53;5017257;28;20057;-64
2023/09/04 03:58:52;;;;;;;9.93;5.10;;;;;;;15.51;100.00;102535.94;5017816;28;20470;-64
2023/09/04 04:01:40;;;;;;;10.80;6.78;;;;;;;15.60;100.00;102523.38;5033043;28;20053;-63
2023/09/04 04:04:28;;;;;;;9.20;6.32;;;;;;;15.59;100.00;102529.97;5049954;28;20091;-65
2023/09/04 04:07:16;;;;;;;13.45;6.03;;;;;;;15.59;100.00;102529.97;5032453;28;20107;-64
2023/09/04 04:10:05;;;;;;;9.80;6.75;;;;;;;15.58;100.00;102528.31;5029423;28;20049;-65
2023/09/04 04:12:53;;;;;;;11.15;6.55;;;;;;;15.48;100.00;102540.03;5001003;28;20064;-64
2023/09/04 04:15:41;;;;;;;9.02;5.97;;;;;;;15.41;100.00;102533.91;5029855;28;20049;-63
2023/09/04 04:18:30;;;;;;;10.90;6.40;;;;;;;15.37;100.00;102534.69;5039440;28;20065;-63
2023/09/04 04:21:18;;;;;;;9.32;6.28;;;;;;;15.38;100.00;102533.63;5034802;28;20071;-63
2023/09/04 04:24:06;;;;;;;11.30;7.07;;;;;;;15.39;100.00;102535.25;5036583;28;20426;-64
2023/09/04 04:26:54;;;;;;;9.23;6.10;;;;;;;15.34;100.00;102520.41;5034255;28;20068;-65
2023/09/04 04:29:48;;;;;;;11.32;6.53;;;;;;;15.33;100.00;102526.97;5051665;28;20049;-65
2023/09/04 04:32:37;;;;;;;11.15;6.65;;;;;;;15.32;100.00;102525.31;5038733;28;20052;-63
2023/09/04 04:35:25;;;;;;;11.75;7.10;;;;;;;15.29;100.00;102525.00;5054186;28;20128;-63
2023/09/04 04:38:13;;;;;;;11.30;6.80;;;;;;;15.27;100.00;102536.25;5051457;28;20041;-64
2023/09/04 04:41:01;;;;;;;11.75;7.28;;;;;;;15.27;100.00;102527.16;5054638;28;20041;-64
2023/09/04 04:43:49;;;;;;;12.27;7.28;;;;;;;15.23;100.00;102529.59;5032097;28;20111;-64
2023/09/04 04:46:37;;;;;;;11.35;7.25;;;;;;;15.21;100.00;102534.53;5039775;28;20553;-64
2023/09/04 04:49:25;;;;;;;11.30;7.63;;;;;;;15.17;100.00;102538.84;5055644;28;20048;-65
2023/09/04 04:52:13;;;;;;;11.98;6.57;;;;;;;15.15;100.00;102535.53;5026363;28;20045;-64
2023/09/04 04:55:01;;;;;;;11.75;7.18;;;;;;;15.17;100.00;102533.38;5039666;28;20052;-64
2023/09/04 04:57:50;;;;;;;12.40;7.75;;;;;;;15.15;100.00;102535.53;5052010;28;20072;-64
2023/09/04 05:00:38;;;;;;;13.65;8.00;;;;;;;15.12;100.00;102527.81;5040368;28;20056;-64
2023/09/04 05:03:26;;;;;;;11.30;7.80;;;;;;;15.09;100.00;102522.84;5052117;28;20041;-64
2023/09/04 05:06:15;;;;;;;11.52;8.15;;;;;;;15.06;100.00;102523.38;5054039;28;20049;-64
2023/09/04 05:09:03;;;;;;;12.63;7.43;;;;;;;15.05;100.00;102521.69;5020654;28;20045;-64
2023/09/04 05:11:53;;;;;;;14.57;8.07;;;;;;;15.05;100.00;102513.47;5007005;28;20053;-64
2023/09/04 05:14:42;;;;;;;12.20;7.20;;;;;;;15.09;100.00;102509.13;5013982;28;20046;-64
2023/09/04 05:17:30;;;;;;;13.05;8.20;;;;;;;15.08;100.00;102507.44;5007520;28;20049;-66
2023/09/04 05:20:18;;;;;;;15.52;7.68;;;;;;;15.08;100.00;102515.69;5025361;28;20049;-65
2023/09/04 05:23:06;;;;;;;14.70;7.32;;;;;;;15.07;100.00;102511.28;5029112;28;20069;-64
2023/09/04 05:25:54;;;;;;;14.10;7.90;;;;;;;15.07;100.00;102509.38;5037671;28;20057;-64
2023/09/04 05:28:42;;;;;;;13.98;8.68;;;;;;;15.05;100.00;102521.69;5033491;28;20084;-64
2023/09/04 05:31:31;;;;;;;13.70;8.25;;;;;;;15.02;100.00;102514.81;5038455;28;20119;-64
2023/09/04 05:34:19;;;;;;;11.90;7.28;;;;;;;15.08;100.00;102507.44;5052770;28;20048;-65
2023/09/04 05:37:11;;;;;;;13.82;7.30;;;;;;;15.14;100.00;102520.16;5033936;28;20046;-66
2023/09/04 05:39:59;;;;;;;13.30;7.32;;;;;;;15.19;100.00;102520.22;5035004;28;20418;-64
2023/09/04 05:42:47;;;;;;;10.55;7.40;;;;;;;15.25;100.00;102523.84;5049926;28;20045;-65
2023/09/04 05:45:35;;;;;;;15.68;8.48;;;;;;;15.30;100.00;102521.19;5033552;28;20179;-65
2023/09/04 05:48:23;;;;;;;11.82;6.78;;;;;;;15.37;100.00;102516.31;5038133;28;20037;-65
2023/09/04 05:51:11;;;;;;;14.23;8.73;;;;;;;15.43;100.00;102525.41;5052791;28;20426;-65
2023/09/04 05:53:59;;;;;;;11.85;7.03;;;;;;;15.44;100.00;102527.06;5052720;28;20064;-64
2023/09/04 05:56:47;;;;;;;11.13;7.35;;;;;;;15.51;100.00;102524.94;5050564;28;20451;-65
2023/09/04 05:59:35;;;;;;;13.02;7.68;;;;;;;15.49;100.00;102529.84;5053202;28;20049;-65
2023/09/04 06:02:24;;;;;;;16.50;8.90;;;;;;;15.51;100.00;102530.44;5053394;28;20076;-64
2023/09/04 06:05:12;;;;;;;12.07;7.85;;;;;;;15.53;100.00;102531.00;5038836;28;20083;-66
2023/09/04 06:08:00;;;;;;;10.90;6.80;;;;;;;15.51;100.00;102525.78;5048533;28;20108;-67
2023/09/04 06:10:49;;;;;;;13.63;8.20;;;;;;;15.51;100.00;102538.69;5053114;28;20083;-64
2023/09/04 06:13:37;;;;;;;12.65;7.28;;;;;;;15.52;100.00;102545.84;5035044;28;20053;-65
2023/09/04 06:16:25;;;;;;;12.95;7.10;;;;;;;15.53;100.00;102531.00;5039516;28;20128;-65
2023/09/04 06:19:13;;;;;;;11.13;7.07;;;;;;;15.59;100.00;102535.47;5028530;28;20057;-66
2023/09/04 06:22:01;;;;;;;12.88;6.28;;;;;;;15.60;100.00;102537.13;5051605;28;20044;-65
2023/09/04 06:24:49;;;;;;;11.73;7.47;;;;;;;15.66;100.00;102529.78;5038554;28;20123;-65
2023/09/04 06:27:38;;;;;;;12.30;7.22;;;;;;;15.75;100.00;102534.56;5053088;28;20055;-65
2023/09/04 06:30:26;;;;;;;8.43;5.35;;;;;;;15.80;100.00;102528.25;5052984;28;20045;-65
2023/09/04 06:33:14;;;;;;;13.57;8.02;;;;;;;15.80;100.00;102530.19;5051997;28;20424;-65
2023/09/04 06:36:03;;;;;;;12.48;7.15;;;;;;;15.81;100.00;102526.38;5037788;28;20109;-64
2023/09/04 06:38:51;;;;;;;14.27;8.52;;;;;;;15.81;100.00;102529.13;5049799;28;20041;-64
2023/09/04 06:41:40;;;;;;;13.40;6.82;;;;;;;15.86;100.00;102523.66;5053034;28;20041;-65
2023/09/04 06:44:28;;;;;;;10.70;6.53;;;;;;;15.92;100.00;102522.59;5053465;28;20041;-65
2023/09/04 06:47:16;;;;;;;12.98;6.72;;;;;;;15.96;100.00;102524.56;5038256;28;20126;-65
2023/09/04 06:50:05;;;;;;;13.77;8.23;;;;;;;16.01;100.00;102522.94;5051354;28;20052;-64
2023/09/04 06:52:53;;;;;;;9.98;6.90;;;;;;;16.01;100.00;102515.53;5052938;28;20044;-64
2023/09/04 06:55:41;;;;;;;12.63;7.78;;;;;;;16.04;100.00;102520.47;5020317;28;20053;-63
2023/09/04 06:58:29;;;;;;;11.60;7.90;;;;;;;16.08;100.00;102516.13;5033346;28;20038;-64
2023/09/04 07:01:17;;;;;;;9.80;6.30;;;;;;;16.10;100.00;102518.63;5032553;28;20124;-63
2023/09/04 07:04:06;;;;;;;11.50;7.88;;;;;;;16.13;100.00;102518.91;5045196;28;20148;-63
2023/09/04 07:06:53;;;;;;;12.63;7.75;;;;;;;16.18;100.00;102518.13;5052984;28;20080;-64
2023/09/04 07:09:41;;;;;;;9.77;6.60;;;;;;;16.25;100.00;102520.66;5031692;28;20123;-64
2023/09/04 07:12:32;;;;;;;12.52;7.60;;;;;;;16.28;100.00;102514.59;5024370;28;20080;-64
2023/09/04 07:15:20;;;;;;;10.73;6.97;;;;;;;16.34;100.00;102519.88;5044128;28;20037;-64
2023/09/04 07:18:08;;;;;;;11.50;7.63;;;;;;;16.37;100.00;102524.03;5049387;28;20460;-65
2023/09/04 07:20:56;;;;;;;10.38;6.32;;;;;;;16.41;100.00;102519.66;5033604;28;20527;-65
2023/09/04 07:23:46;;;;;;;11.48;6.80;;;;;;;16.47;100.00;102524.09;5018756;28;20045;-67
2023/09/04 07:26:34;;;;;;;10.45;7.78;;;;;;;16.51;100.00;102519.72;5045121;28;20154;-64
2023/09/04 07:29:22;;;;;;;12.25;6.55;;;;;;;16.58;100.00;102520.31;5043485;28;20044;-64
2023/09/04 07:32:10;;;;;;;13.73;7.05;;;;;;;16.60;100.00;102520.88;5032087;28;20127;-64
2023/09/04 07:34:58;;;;;;;13.90;7.57;;;;;;;16.62;100.00;102520.63;5032162;28;20464;-64
2023/09/04 07:37:46;;;;;;;17.60;8.13;;;;;;;16.68;100.00;102518.69;5043380;28;20045;-64
2023/09/04 07:40:34;;;;;;;12.95;8.00;;;;;;;16.74;100.00;102523.13;5049603;28;20122;-64
2023/09/04 07:43:22;;;;;;;13.27;7.75;;;;;;;16.77;100.00;102522.59;5052425;28;20044;-65
2023/09/04 07:46:10;;;;;;;11.95;8.07;;;;;;;16.80;100.00;102522.09;5038047;28;20045;-64
2023/09/04 07:48:58;;;;;;;14.00;8.40;;;;;;;16.84;100.00;102523.22;5052918;28;20619;-64
2023/09/04 07:51:47;;;;;;;13.30;9.13;;;;;;;16.87;100.00;102525.44;5038888;28;20049;-64
2023/09/04 07:54:35;;;;;;;14.40;8.70;;;;;;;16.92;100.00;102530.94;5038046;28;20052;-64
2023/09/04 07:57:23;;;;;;;13.35;8.10;;;;;;;16.94;100.00;102528.75;5031676;28;20037;-64
2023/09/04 08:00:12;;;;;;;13.07;6.88;;;;;;;16.99;100.00;102523.28;5017954;28;20531;-65
2023/09/04 08:03:00;;;;;;;12.02;8.13;;;;;;;16.99;100.00;102517.75;5031126;28;20045;-64
2023/09/04 08:05:48;;;;;;;14.68;7.88;;;;;;;17.03;100.00;102518.88;5025852;28;20512;-65
2023/09/04 08:08:38;;;;;;;12.25;8.35;;;;;;;17.08;100.00;102517.22;5020311;28;20061;-64
2023/09/04 08:11:26;;;;;;;11.93;8.20;;;;;;;17.11;100.00;102524.97;5035735;28;20150;-64
2023/09/04 08:14:14;;;;;;;12.75;7.40;;;;;;;17.14;100.00;102519.72;5036360;28;20120;-63
2023/09/04 08:17:04;;;;;;;14.55;8.20;;;;;;;17.19;100.00;102518.94;5007924;28;20087;-64
2023/09/04 08:19:52;;;;;;;12.50;7.35;;;;;;;17.25;100.00;102528.88;5019977;28;20045;-64
2023/09/04 08:22:40;;;;;;;12.38;7.20;;;;;;;17.31;100.00;102519.50;5035026;28;20056;-65
2023/09/04 08:25:29;;;;;;;14.10;7.68;;;;;;;17.36;100.00;102525.03;5036313;28;20050;-64
2023/09/04 08:28:17;;;;;;;11.30;7.93;;;;;;;17.41;100.00;102508.53;5035876;28;20175;-63
2023/09/04 08:31:05;;;;;;;14.57;6.88;;;;;;;17.44;100.00;102516.25;5034941;28;20128;-62
2023/09/04 08:33:53;;;;;;;12.43;7.22;;;;;;;17.51;100.00;102515.13;5035472;28;20038;-63
2023/09/04 08:36:42;;;;;;;13.07;6.50;;;;;;;17.58;100.00;102510.19;5034573;28;20057;-64
2023/09/04 08:39:30;;;;;;;14.55;7.53;;;;;;;17.60;100.00;102507.97;5034788;28;20081;-64
2023/09/04 08:42:18;;;;;;;15.90;7.68;;;;;;;17.62;100.00;102501.09;5020875;28;20101;-62
2023/09/04 08:45:07;;;;;;;14.15;7.80;;;;;;;17.72;100.00;102504.97;5020889;28;20072;-63
2023/09/04 08:47:55;;;;;;;11.93;7.60;;;;;;;17.80;100.00;102497.00;5021450;28;20056;-63
2023/09/04 08:50:43;;;;;;;11.40;6.95;;;;;;;17.86;100.00;102504.16;5033882;28;20045;-62
2023/09/04 08:53:32;;;;;;;11.30;7.35;;;;;;;17.93;100.00;102505.81;5033916;28;20057;-64
2023/09/04 08:56:20;;;;;;;11.13;6.97;;;;;;;18.05;100.00;102503.59;5045224;28;20568;-64
2023/09/04 08:59:08;;;;;;;16.17;6.78;;;;;;;18.09;100.00;102502.78;5054441;28;20580;-64
2023/09/04 09:01:57;;;;;;;11.82;6.50;;;;;;;18.06;100.00;102502.47;5037670;28;20519;-64
2023/09/04 09:04:45;;;;;;;12.13;6.15;;;;;;;18.10;100.00;102501.66;5039287;28;20556;-64
2023/09/04 09:07:33;;;;;;;12.40;6.82;;;;;;;18.15;100.00;102492.53;5054343;28;20040;-63
2023/09/04 09:10:22;;;;;;;9.90;6.70;;;;;;;18.17;100.00;102495.84;5040431;28;20059;-63
2023/09/04 09:13:12;;;;;;;11.32;7.30;;;;;;;18.27;100.00;102497.78;5053014;28;20057;-64
2023/09/04 09:16:00;;;;;;;12.02;6.00;;;;;;;18.34;100.00;102494.72;5026733;28;20386;-64
2023/09/04 09:18:49;;;;;;;9.43;6.20;;;;;;;18.37;100.00;102491.41;5037497;28;20349;-63
2023/09/04 09:21:37;;;;;;;11.20;6.28;;;;;;;18.41;100.00;102490.56;5038771;28;20052;-64
2023/09/04 09:24:25;;;;;;;10.70;5.80;;;;;;;18.52;100.00;102485.84;5053594;28;20041;-63
2023/09/04 09:27:13;;;;;;;10.18;6.10;;;;;;;18.58;100.00;102486.66;5055261;28;20115;-63
2023/09/04 09:30:02;;;;;;;11.48;5.47;;;;;;;18.61;100.00;102478.63;5054945;28;20191;-63
2023/09/04 09:32:55;;;;;;;10.70;5.90;;;;;;;18.69;100.00;102483.56;5039962;28;20048;-64
2023/09/04 09:35:44;;;;;;;11.57;5.95;;;;;;;18.69;100.00;102486.34;5051813;28;20123;-65
2023/09/04 09:38:32;;;;;;;12.00;5.90;;;;;;;18.71;100.00;102495.16;5039108;28;20037;-65
2023/09/04 09:41:20;;;;;;;10.98;5.63;;;;;;;18.80;100.00;102489.06;5055237;28;20049;-64
2023/09/04 09:44:08;;;;;;;10.27;6.50;;;;;;;18.80;100.00;102481.59;5034042;28;20509;-65
2023/09/04 09:46:56;;;;;;;13.43;5.38;;;;;;;18.83;100.00;102489.34;5038731;28;20037;-64
2023/09/04 09:49:46;;;;;;;12.45;6.25;;;;;;;18.85;100.00;102487.09;5053685;28;20115;-64
2023/09/04 09:52:34;;;;;;;13.30;6.30;;;;;;;18.90;100.00;102480.72;5048904;28;20045;-65
2023/09/04 09:55:29;;;;;;;12.07;6.50;;;;;;;19.01;100.00;102476.81;5041722;28;20529;-64
2023/09/04 09:58:17;;;;;;;10.73;6.20;;;;;;;19.19;100.00;102482.78;5038744;28;20057;-65
2023/09/04 10:01:06;;;;;;;12.23;5.80;;;;;;;19.26;100.00;102478.59;5057745;28;20047;-64
2023/09/04 10:03:54;;;;;;;11.15;6.13;;;;;;;19.26;100.00;102469.47;5056652;28;20041;-66
2023/09/04 10:06:42;;;;;;;13.68;5.60;;;;;;;19.29;100.00;102471.66;5047857;28;20416;-64
2023/09/04 10:09:46;;;;;;;10.93;5.97;;;;;;;19.37;100.00;102460.81;5051286;28;20053;-64
2023/09/04 10:13:09;;;;;;;8.38;5.30;;;;;;;19.45;99.38;102464.09;5036722;28;20045;-65
2023/09/04 10:16:01;;;;;;;9.05;4.75;;;;;;;19.45;99.90;102470.44;5062738;28;20049;-64
2023/09/04 10:18:53;;;;;;;8.70;4.60;;;;;;;19.48;98.93;102461.59;5049664;28;20039;-64
2023/09/04 10:21:46;;;;;;;11.27;5.38;;;;;;;19.55;100.00;102456.56;5063153;28;20041;-65
2023/09/04 10:25:15;;;;;;;9.43;4.95;;;;;;;19.63;98.96;102457.88;5034780;28;20045;-65
2023/09/04 10:28:09;;;;;;;10.05;5.00;;;;;;;19.69;98.89;102456.72;5049888;28;20044;-63
2023/09/04 10:31:00;;;;;;;7.43;4.57;;;;;;;19.72;98.24;102455.31;5062911;28;20049;-63
2023/09/04 10:33:49;;;;;;;7.50;4.30;;;;;;;19.73;96.20;102454.22;5043421;28;20103;-63
2023/09/04 10:36:38;;;;;;;11.55;4.65;;;;;;;19.81;95.74;102461.06;5057596;28;20064;-64
2023/09/04 10:39:27;;;;;;;9.43;4.32;;;;;;;19.84;95.23;102464.06;5042548;28;20046;-64
2023/09/04 10:42:18;;;;;;;11.27;5.18;;;;;;;19.91;92.78;102450.72;5051070;28;20049;-63
2023/09/04 10:45:13;;;;;;;7.45;4.10;;;;;;;20.05;91.91;102444.50;5055638;28;20052;-63
2023/09/04 10:48:02;;;;;;;10.13;4.70;;;;;;;20.07;92.25;102447.81;5054982;28;20048;-63
2023/09/04 10:50:52;;;;;;;12.90;5.15;;;;;;;20.21;90.49;102437.69;5049003;28;20497;-64
2023/09/04 10:53:41;;;;;;;9.77;4.90;;;;;;;20.28;90.86;102438.16;5032250;28;20080;-65
2023/09/04 10:56:34;;;;;;;7.97;4.70;;;;;;;20.26;90.90;102434.88;5032032;28;20053;-63
2023/09/04 10:59:23;;;;;;;7.53;4.28;;;;;;;20.24;90.33;102430.75;5031344;28;20041;-63
2023/09/04 11:02:30;;;;;;;8.95;4.43;;;;;;;20.25;nan;102426.84;5044937;28;20452;-64
2023/09/04 11:05:22;;;;;;;7.82;4.30;;;;;;;20.27;91.37;102428.19;5052790;28;20050;-64
2023/09/04 11:08:26;;;;;;;7.68;4.40;;;;;;;20.43;87.84;102418.59;5017735;28;20496;-64
2023/09/04 11:11:14;;;;;;;11.73;4.57;;;;;;;20.52;88.13;102420.72;5030602;28;20056;-64
2023/09/04 11:14:06;;;;;;;9.23;5.00;;;;;;;20.61;86.30;102410.63;5037426;28;20037;-64
2023/09/04 11:16:54;;;;;;;8.63;4.55;;;;;;;20.62;87.75;102412.31;5052560;28;20045;-62
2023/09/04 11:19:43;;;;;;;10.30;4.88;;;;;;;20.64;88.20;102410.06;5037953;28;20049;-64
2023/09/04 11:22:33;;;;;;;8.82;4.38;;;;;;;20.65;90.01;102403.38;5052448;28;20047;-65
2023/09/04 11:25:23;;;;;;;9.52;5.00;;;;;;;20.68;87.38;102405.56;5030769;28;20508;-65
2023/09/04 11:28:11;;;;;;;8.85;4.85;;;;;;;20.72;88.13;102401.06;5051508;28;20056;-64
2023/09/04 11:31:00;;;;;;;13.18;4.55;;;;;;;20.74;87.90;102396.06;5051407;28;20068;-64
2023/09/04 11:33:49;;;;;;;7.53;3.78;;;;;;;20.77;82.83;102389.91;5051373;28;20051;-64
2023/09/04 11:36:38;;;;;;;6.63;3.40;;;;;;;20.78;78.23;102391.59;5052646;28;20048;-65
2023/09/04 11:39:25;;;;;;;7.70;3.80;;;;;;;20.77;80.58;102392.69;5025631;28;20139;-65
2023/09/04 11:42:19;;;;;;;7.57;3.45;;;;;;;20.91;79.48;102392.78;5036914;28;20045;-65
2023/09/04 11:45:08;;;;;;;8.98;3.80;;;;;;;21.03;77.39;102389.53;5032261;28;20042;-64
2023/09/04 11:47:57;;;;;;;8.18;3.50;;;;;;;20.95;80.40;102399.38;5031335;28;20049;-64
2023/09/04 11:50:45;;;;;;;6.50;3.00;;;;;;;20.87;79.67;102399.22;5004627;28;20501;-65
2023/09/04 11:53:33;;;;;;;7.28;3.78;;;;;;;20.87;76.49;102394.47;5034743;28;20110;-65
2023/09/04 11:56:21;;;;;;;7.82;4.25;;;;;;;20.96;77.52;102386.34;5041654;28;20056;-64
2023/09/04 11:59:09;;;;;;;6.28;3.80;;;;;;;20.95;80.23;102385.50;5050963;28;20505;-64
2023/09/04 12:01:57;;;;;;;7.38;3.70;;;;;;;21.02;79.22;102379.56;5050991;28;20075;-65
2023/09/04 12:04:46;;;;;;;5.65;3.50;;;;;;;21.04;77.06;102380.91;5036604;28;20037;-64
2023/09/04 12:07:35;;;;;;;5.65;3.50;;;;;;;21.12;74.26;102373.88;5038596;28;20037;-64
2023/09/04 12:10:23;;;;;;;5.57;3.20;;;;;;;21.18;74.06;102375.44;5038475;28;20041;-66
2023/09/04 12:13:14;;;;;;;6.13;3.60;;;;;;;21.17;75.84;102370.22;5064079;28;20134;-65
2023/09/04 12:16:07;;;;;;;6.55;4.13;;;;;;;21.17;78.67;102375.75;5050121;28;20049;-64
2023/09/04 12:18:55;;;;;;;7.95;3.67;;;;;;;21.16;80.20;102371.31;5036152;28;20067;-64
2023/09/04 12:21:43;;;;;;;6.05;3.90;;;;;;;21.23;77.90;102375.34;5049970;28;20064;-63
2023/09/04 12:24:31;;;;;;;6.03;3.72;;;;;;;21.31;75.37;102371.09;5044635;28;20055;-65
2023/09/04 12:27:19;;;;;;;8.77;4.43;;;;;;;21.41;75.10;102370.13;5070776;28;20203;-64
2023/09/04 12:30:09;;;;;;;7.90;4.18;;;;;;;21.40;74.61;102363.72;5070228;28;20444;-64
2023/09/04 12:32:58;;;;;;;9.68;4.10;;;;;;;21.44;75.30;102370.31;5042525;28;20083;-64
2023/09/04 12:35:56;;;;;;;6.18;3.50;;;;;;;21.46;75.26;102367.25;5070639;28;20053;-65
2023/09/04 12:38:47;;;;;;;6.88;3.90;;;;;;;21.46;75.41;102362.53;5056404;28;20048;-64
2023/09/04 12:41:36;;;;;;;7.18;3.70;;;;;;;21.39;75.95;102358.47;5069835;28;20052;-64
2023/09/04 12:44:24;;;;;;;8.63;3.78;;;;;;;21.38;76.99;102359.56;5054378;28;20078;-65
2023/09/04 12:47:12;;;;;;;8.30;3.72;;;;;;;21.46;74.22;102362.53;5036096;28;20045;-64
2023/09/04 12:50:00;;;;;;;5.78;3.33;;;;;;;21.51;73.74;102353.28;5036406;28;20052;-64
2023/09/04 12:52:49;;;;;;;5.60;3.30;;;;;;;21.58;71.55;102339.84;5052298;28;20041;-64
2023/09/04 12:55:37;;;;;;;6.85;3.55;;;;;;;21.62;71.31;102332.56;5065031;28;20078;-64